Airfield :
LOGIN :

Register | Disclaimer

   EN    FR    IT 

 










Legend :    VFR   Marginal VFR   IFR   Intensive IFR   Very Intensive IFR
Visi :
Ceiling :
>= 8 km
>= 3000ft
5 to 8 km
1000 to 3000 ft
1500m to 5 km
500 to 1000 ft
800 to 1500m
200 to 500 ft
< 800m
< 200 ft
Symbols :   Thunderstorms  Fog  Heavy snow  Heavy precipitations  Wind > 20 kt
SIGMETs :     Misc.  Thunderstorms  Icing  Turbulence  Mountain Waves  Volcanic Ashes







- Airport Elevation : 53 ft
- IATA code : HAM


EDDH - Hamburg

CURRENT METAR :
  • 200050Z 17009KT CAVOK 17/16 Q1007 NOSIG

EXPIRED METARs :
  • 200020Z 14006KT 9999 FEW045 17/16 Q1007 NOSIG
  • 192350Z 12005KT 080V150 9999 FEW045 17/16 Q1007 NOSIG
  • 192320Z 08003KT 060V220 9999 -SHRA FEW013 FEW050CB 17/15 Q1007 NOSIG
  • 192250Z VRB04KT 9999 -SHRA FEW013 BKN050CB 17/15 Q1008 RESHRA TEMPO SHRA
  • 192220Z 24015KT 210V280 6000 VCTS SHRA FEW015 BKN040CB 18/14 Q1009 TEMPO 4000
  • 192150Z VRB02KT 9999 SCT050CB 17/15 Q1007 TEMPO 24020G35KT TSRA

TAF TAF EDDH
Valid from the 20 at 00:00 until the 21 at 06:00 UTC


192300Z 2000/2106 22004KT 9999 SCT030
PROB30
TEMPO 2000/2008 24015G25KT SHRA BKN020CB
TEMPO 2003/2008 4500 BR BKN008
BECMG 2007/2009 27009KT
TEMPO 2008/2020 SHRA BKN020CB
PROB30
TEMPO 2008/2018 24015G30KT 4000 TSRA BKN014CB
BECMG 2017/2019 28004KT
TEMPO 2100/2106 2500 BCFG
No reported NOTAMs for that airfield.
2 SIGMETs reported for the Bremen FIR (EDWW) :
 
Embedded thunderstorms
EDWW SIGMET 11 VALID 192300/200100 EDZF
EDWW BREMEN FIR EMBD TS OBS WI N5329 E01014 - N5306 E01218 - N5149 E01308 - N5204 E01102 - N5235 E01001 - N5329 E01014 TOP FL380 MOV NNE NC=
SIGMET 11 cancelation
EDWW SIGMET 1 VALID 200031/200100 EDZF
EDWW BREMEN FIR CNL SIGMET 11 192300/200100=



MET'MAP, your aeronautical weather chart ! - Copyright ORBIFLY December 2007 - Disclaimer

ORBIFLY MET'MAP TEAM :

Programming & Development : Alexandra Zaïnal
Concept & Development : Baudouin d'Aumeries
Co-Development & Prog : Marc-Olivier Méhu
Technical & hardware support : Manuel Goepfert

Contact : metmap@orbifly.com




SOURCES & CREDITS :

   NOAA